Time;durP1;ratioP1;P1;durP2;ratioP2;P2;SDS_P1;SDS_P2;PMS_P1;PMS_P2;Temp;Humidity;BMP_temperature;BMP_pressure;BME280_temperature;BME280_humidity;BME280_pressure;Samples;Min_cycle;Max_cycle;Signal;HPM_P1;HPM_P2
2022/05/26 00:01:46;;;;;;;1.02;0.88;;;;;;;;;;10363726;28;20065;-72
2022/05/26 00:06:52;;;;;;;1.38;1.15;;;;;;;;;;10342390;28;20046;-76
2022/05/26 00:11:55;;;;;;;1.33;0.93;;;;;;;;;;10362939;28;20080;-77
2022/05/26 00:16:58;;;;;;;;;;;;;;;;;;10348235;28;20041;-75
2022/05/26 00:22:03;;;;;;;1.40;1.30;;;;;;;;;;10363062;28;19925;-76
2022/05/26 00:27:06;;;;;;;1.35;1.10;;;;;;;;;;10345085;28;20528;-77
2022/05/26 00:32:09;;;;;;;0.83;0.80;;;;;;;;;;10365320;28;20109;-75
2022/05/26 00:37:14;;;;;;;2.38;1.25;;;;;;;;;;10339674;28;20038;-75
2022/05/26 00:42:18;;;;;;;1.52;1.25;;;;;;;;;;10366713;28;20041;-75
2022/05/26 00:47:22;;;;;;;3.30;1.60;;;;;;;;;;10356935;28;20084;-75
2022/05/26 00:52:31;;;;;;;3.03;1.70;;;;;;;;;;10362544;28;20046;-75
2022/05/26 00:57:36;;;;;;;2.97;1.23;;;;;;;;;;10363585;28;20205;-75
2022/05/26 01:02:43;;;;;;;4.53;1.85;;;;;;;;;;10352385;28;20248;-75
2022/05/26 01:07:48;;;;;;;2.30;1.70;;;;;;;;;;10337891;28;20132;-75
2022/05/26 01:12:52;;;;;;;2.60;1.85;;;;;;;;;;10356833;28;20480;-76
2022/05/26 01:18:00;;;;;;;2.20;1.75;;;;;;;;;;10360723;28;20046;-77
2022/05/26 01:23:24;;;;;;;4.30;1.70;;;;;;;;;;10346291;28;20457;-77
2022/05/26 01:28:49;;;;;;;4.25;1.60;;;;;;;;;;10340593;28;20061;-75
2022/05/26 01:34:00;;;;;;;2.83;1.55;;;;;;;;;;10344206;28;20042;-76
2022/05/26 01:39:06;;;;;;;3.95;2.00;;;;;;;;;;10364411;28;20044;-76
2022/05/26 01:44:12;;;;;;;3.72;2.17;;;;;;;;;;10350551;28;20100;-75
2022/05/26 01:49:22;;;;;;;5.70;2.28;;;;;;;;;;10339946;28;20050;-75
2022/05/26 01:54:29;;;;;;;3.15;1.80;;;;;;;;;;10345027;28;20333;-75
2022/05/26 01:59:36;;;;;;;2.58;1.92;;;;;;;;;;10345770;28;20045;-76
2022/05/26 02:04:43;;;;;;;2.40;1.90;;;;;;;;;;10352950;28;20034;-76
2022/05/26 02:09:46;;;;;;;4.07;1.90;;;;;;;;;;10334263;28;20046;-76
2022/05/26 02:14:53;;;;;;;4.80;2.08;;;;;;;;;;10343344;28;20129;-75
2022/05/26 02:20:00;;;;;;;3.28;2.20;;;;;;;;;;10352882;28;20412;-76
2022/05/26 02:25:05;;;;;;;2.15;1.33;;;;;;;;;;10337447;28;20050;-75
2022/05/26 02:30:09;;;;;;;3.42;2.00;;;;;;;;;;10351005;28;20149;-74
2022/05/26 02:35:14;;;;;;;2.45;1.80;;;;;;;;;;10362655;28;20512;-75
2022/05/26 02:40:17;;;;;;;4.95;2.17;;;;;;;;;;10366687;28;20116;-75
2022/05/26 02:45:23;;;;;;;1.60;1.08;;;;;;;;;;10356058;28;20137;-75
2022/05/26 02:50:36;;;;;;;4.28;1.98;;;;;;;;;;10345094;28;20076;-75
2022/05/26 02:55:46;;;;;;;2.80;1.93;;;;;;;;;;10351568;28;20074;-74
2022/05/26 03:00:54;;;;;;;4.60;2.15;;;;;;;;;;10334927;28;20046;-75
2022/05/26 03:06:02;;;;;;;3.63;2.38;;;;;;;;;;10342067;28;20476;-76
2022/05/26 03:11:06;;;;;;;3.08;2.05;;;;;;;;;;10352030;28;20150;-76
2022/05/26 03:16:09;;;;;;;;;;;;;;;;;;10351486;28;20069;-75
2022/05/26 03:21:14;;;;;;;2.65;1.48;;;;;;;;;;10364625;28;19925;-75
2022/05/26 03:26:17;;;;;;;5.00;2.03;;;;;;;;;;10364302;28;20072;-77
2022/05/26 03:31:20;;;;;;;2.13;1.50;;;;;;;;;;10363144;28;20068;-77
2022/05/26 03:41:46;;;;;;;3.65;2.10;;;;;;;;;;10362036;28;20117;-76
2022/05/26 03:46:50;;;;;;;3.93;2.20;;;;;;;;;;10349293;28;20069;-78
2022/05/26 03:51:54;;;;;;;2.10;1.20;;;;;;;;;;10368459;28;20045;-78
2022/05/26 03:56:58;;;;;;;2.65;2.00;;;;;;;;;;10362822;28;20045;-78
2022/05/26 04:02:00;;;;;;;1.17;0.88;;;;;;;;;;10344016;28;20445;-77
2022/05/26 04:07:05;;;;;;;3.33;1.90;;;;;;;;;;10371336;28;20045;-74
2022/05/26 04:12:08;;;;;;;1.15;0.88;;;;;;;;;;10366978;28;20120;-74
2022/05/26 04:17:12;;;;;;;1.42;1.15;;;;;;;;;;10340134;28;20060;-76
2022/05/26 04:22:17;;;;;;;1.70;1.00;;;;;;;;;;10342557;28;20398;-76
2022/05/26 04:27:21;;;;;;;1.60;1.05;;;;;;;;;;10335946;28;20046;-77
2022/05/26 04:32:25;;;;;;;1.73;1.50;;;;;;;;;;10340446;28;20038;-76
2022/05/26 04:37:30;;;;;;;3.45;1.92;;;;;;;;;;10343977;28;20080;-75
2022/05/26 04:42:34;;;;;;;3.40;1.77;;;;;;;;;;10369781;28;20046;-75
2022/05/26 04:47:37;;;;;;;1.97;0.80;;;;;;;;;;10332281;28;20077;-75
2022/05/26 04:52:42;;;;;;;2.95;1.67;;;;;;;;;;10343950;28;20451;-75
2022/05/26 04:57:45;;;;;;;4.70;1.77;;;;;;;;;;10342843;28;20463;-77
2022/05/26 05:02:48;;;;;;;2.03;1.50;;;;;;;;;;10361353;28;20463;-78
2022/05/26 05:07:53;;;;;;;3.60;2.03;;;;;;;;;;10358299;28;20458;-77
2022/05/26 05:12:56;;;;;;;3.55;1.80;;;;;;;;;;10344792;28;20300;-77
2022/05/26 05:18:01;;;;;;;1.58;1.48;;;;;;;;;;10342829;28;20458;-77
2022/05/26 05:23:08;;;;;;;2.20;0.95;;;;;;;;;;10355582;28;20591;-76
2022/05/26 05:28:13;;;;;;;2.70;1.73;;;;;;;;;;10358839;28;20046;-74
2022/05/26 05:33:20;;;;;;;2.15;1.65;;;;;;;;;;10357527;28;20029;-77
2022/05/26 05:38:27;;;;;;;2.22;1.60;;;;;;;;;;10361523;28;20117;-77
2022/05/26 05:43:30;;;;;;;3.38;2.00;;;;;;;;;;10352479;28;20042;-75
2022/05/26 05:48:35;;;;;;;2.83;1.50;;;;;;;;;;10363023;28;20175;-77
2022/05/26 05:53:39;;;;;;;0.88;0.88;;;;;;;;;;10344071;28;20153;-75
2022/05/26 05:58:42;;;;;;;1.60;1.50;;;;;;;;;;10364233;28;20049;-75
2022/05/26 06:03:46;;;;;;;1.60;1.50;;;;;;;;;;10348710;28;20080;-75
2022/05/26 06:08:50;;;;;;;3.88;2.22;;;;;;;;;;10360798;28;20505;-76
2022/05/26 06:13:54;;;;;;;3.50;1.67;;;;;;;;;;10353669;28;20347;-75
2022/05/26 06:18:57;;;;;;;2.08;1.60;;;;;;;;;;10362213;28;20097;-74
2022/05/26 06:24:01;;;;;;;4.13;1.77;;;;;;;;;;10364491;28;20038;-78
2022/05/26 06:39:47;;;;;;;2.38;1.42;;;;;;;;;;10356251;28;20045;-78
2022/05/26 06:44:51;;;;;;;3.72;1.15;;;;;;;;;;10363045;28;20057;-78
2022/05/26 06:49:55;;;;;;;2.67;1.63;;;;;;;;;;10338308;28;20539;-78
2022/05/26 06:55:00;;;;;;;2.95;1.30;;;;;;;;;;10349830;28;20040;-77
2022/05/26 07:00:04;;;;;;;1.80;1.27;;;;;;;;;;10366015;28;20541;-77
2022/05/26 07:05:07;;;;;;;2.92;1.48;;;;;;;;;;10347237;28;20510;-76
2022/05/26 07:10:13;;;;;;;1.38;1.27;;;;;;;;;;10361707;28;20125;-78
2022/05/26 07:15:16;;;;;;;4.35;1.15;;;;;;;;;;10366510;28;20463;-78
2022/05/26 07:20:21;;;;;;;1.90;1.23;;;;;;;;;;10361795;28;20038;-76
2022/05/26 07:25:25;;;;;;;2.92;2.05;;;;;;;;;;10362200;28;20382;-78
2022/05/26 07:30:28;;;;;;;2.20;1.02;;;;;;;;;;10362003;28;20119;-79
2022/05/26 07:35:31;;;;;;;0.68;0.63;;;;;;;;;;10362761;28;20030;-77
2022/05/26 07:45:56;;;;;;;3.38;1.33;;;;;;;;;;10349446;28;20096;-77
2022/05/26 07:50:59;;;;;;;2.38;1.20;;;;;;;;;;10350140;28;20073;-79
2022/05/26 07:56:04;;;;;;;3.10;1.30;;;;;;;;;;10363844;28;20506;-79
2022/05/26 08:01:07;;;;;;;4.60;1.65;;;;;;;;;;10348448;28;20057;-76
2022/05/26 08:06:10;;;;;;;3.30;1.20;;;;;;;;;;10346733;28;20045;-76
2022/05/26 08:11:14;;;;;;;1.80;1.20;;;;;;;;;;10359867;28;20041;-74
2022/05/26 08:16:17;;;;;;;2.58;1.63;;;;;;;;;;10361413;28;20030;-76
2022/05/26 08:21:20;;;;;;;1.38;1.27;;;;;;;;;;10343347;28;20077;-76
2022/05/26 08:26:24;;;;;;;1.90;1.48;;;;;;;;;;10362499;28;20046;-76
2022/05/26 08:31:27;;;;;;;1.80;1.33;;;;;;;;;;10360854;28;20464;-75
2022/05/26 08:36:30;;;;;;;3.83;1.40;;;;;;;;;;10360416;28;20109;-76
2022/05/26 08:41:36;;;;;;;1.30;1.30;;;;;;;;;;10342753;28;20325;-75
2022/05/26 08:46:44;;;;;;;1.42;1.33;;;;;;;;;;10364323;28;20082;-75
2022/05/26 08:51:50;;;;;;;2.22;1.30;;;;;;;;;;10360879;28;20384;-77
2022/05/26 08:56:56;;;;;;;1.50;1.40;;;;;;;;;;10342002;28;20500;-78
2022/05/26 09:02:01;;;;;;;1.35;1.08;;;;;;;;;;10357797;28;20366;-77
2022/05/26 09:17:51;;;;;;;3.50;1.10;;;;;;;;;;10356563;28;20073;-78
2022/05/26 09:22:55;;;;;;;1.15;1.00;;;;;;;;;;10337118;28;20502;-77
2022/05/26 09:27:59;;;;;;;2.78;1.00;;;;;;;;;;10336729;28;20269;-78
2022/05/26 09:33:03;;;;;;;3.67;1.30;;;;;;;;;;10358386;28;20053;-74
2022/05/26 09:38:06;;;;;;;1.05;1.05;;;;;;;;;;10356292;28;20147;-76
2022/05/26 09:43:27;;;;;;;1.42;0.90;;;;;;;;;;10339446;28;20038;-76
2022/05/26 09:48:31;;;;;;;1.00;0.90;;;;;;;;;;10340516;28;20133;-78
2022/05/26 09:53:36;;;;;;;2.97;0.90;;;;;;;;;;10353026;28;20041;-77
2022/05/26 09:58:42;;;;;;;3.35;0.82;;;;;;;;;;10338076;28;20042;-75
2022/05/26 10:03:52;;;;;;;1.50;0.90;;;;;;;;;;10355451;28;20109;-76
2022/05/26 10:09:09;;;;;;;2.90;1.15;;;;;;;;;;10358242;28;20200;-76
2022/05/26 10:14:22;;;;;;;2.10;0.90;;;;;;;;;;10359448;28;20100;-78
2022/05/26 10:19:37;;;;;;;1.75;1.55;;;;;;;;;;10358928;28;20050;-77
2022/05/26 10:24:48;;;;;;;2.33;0.90;;;;;;;;;;10337661;28;20038;-78
2022/05/26 10:29:59;;;;;;;1.42;1.30;;;;;;;;;;10355032;28;20522;-77
2022/05/26 10:35:07;;;;;;;1.70;1.30;;;;;;;;;;10355660;28;20026;-76
2022/05/26 10:40:18;;;;;;;1.45;1.33;;;;;;;;;;10357034;28;20652;-77
2022/05/26 10:45:20;;;;;;;;;;;;;;;;;;10334289;28;20068;-75
2022/05/26 10:50:28;;;;;;;1.50;0.70;;;;;;;;;;10353956;28;19928;-77
2022/05/26 10:55:40;;;;;;;2.78;1.50;;;;;;;;;;10339476;28;20042;-78
2022/05/26 11:00:43;;;;;;;1.70;1.35;;;;;;;;;;10355186;28;20033;-79
2022/05/26 11:05:50;;;;;;;1.65;1.30;;;;;;;;;;10342184;28;20074;-77
2022/05/26 11:10:55;;;;;;;1.60;1.10;;;;;;;;;;10357728;28;20374;-77
2022/05/26 11:21:24;;;;;;;1.70;1.30;;;;;;;;;;10353687;28;20056;-77
2022/05/26 11:26:34;;;;;;;2.58;1.50;;;;;;;;;;10351993;28;20226;-77
2022/05/26 11:37:21;;;;;;;4.93;2.67;;;;;;;;;;10360321;28;20235;-76
2022/05/26 11:42:29;;;;;;;1.73;1.33;;;;;;;;;;10359728;28;20062;-75
2022/05/26 11:47:34;;;;;;;1.33;1.20;;;;;;;;;;10362686;28;20045;-73
2022/05/26 11:52:51;;;;;;;1.73;1.20;;;;;;;;;;10363204;28;20506;-74
2022/05/26 11:57:55;;;;;;;2.90;0.80;;;;;;;;;;10359830;28;20061;-73
2022/05/26 12:03:14;;;;;;;1.58;0.95;;;;;;;;;;10359591;28;20042;-74
2022/05/26 12:08:25;;;;;;;2.40;0.73;;;;;;;;;;10339773;28;20044;-74
2022/05/26 12:13:34;;;;;;;1.10;0.70;;;;;;;;;;10342351;28;20133;-74
2022/05/26 12:18:43;;;;;;;2.55;1.20;;;;;;;;;;10358985;28;20165;-72
2022/05/26 12:23:46;;;;;;;2.60;1.20;;;;;;;;;;10345658;28;20053;-74
2022/05/26 12:28:51;;;;;;;1.42;1.10;;;;;;;;;;10360573;28;20517;-73
2022/05/26 12:34:11;;;;;;;1.33;0.80;;;;;;;;;;10358391;28;20038;-74
2022/05/26 12:39:23;;;;;;;1.23;0.77;;;;;;;;;;10358219;28;20137;-76
2022/05/26 12:44:41;;;;;;;1.95;1.25;;;;;;;;;;10341145;28;20050;-74
2022/05/26 12:49:53;;;;;;;1.95;0.80;;;;;;;;;;10351162;28;20058;-72
2022/05/26 12:55:00;;;;;;;0.90;0.80;;;;;;;;;;10357604;28;20333;-75
2022/05/26 13:00:22;;;;;;;2.38;1.00;;;;;;;;;;10338411;28;20046;-74
2022/05/26 13:05:25;;;;;;;;;;;;;;;;;;10358829;28;20034;-76
2022/05/26 13:10:32;;;;;;;2.90;1.10;;;;;;;;;;10356262;28;20405;-75
2022/05/26 13:15:35;;;;;;;5.45;1.00;;;;;;;;;;10344708;28;20033;-74
2022/05/26 13:20:37;;;;;;;2.17;0.80;;;;;;;;;;10361670;28;20085;-74
2022/05/26 13:26:03;;;;;;;1.73;1.00;;;;;;;;;;10338792;28;20034;-71
2022/05/26 13:36:28;;;;;;;3.25;1.00;;;;;;;;;;10359267;28;20528;-73
2022/05/26 13:41:33;;;;;;;3.08;1.10;;;;;;;;;;10359885;28;20037;-74
2022/05/26 13:46:38;;;;;;;1.30;1.00;;;;;;;;;;10354047;28;20038;-72
2022/05/26 13:51:42;;;;;;;1.33;0.80;;;;;;;;;;10338904;28;20049;-74
2022/05/26 13:56:48;;;;;;;1.00;0.90;;;;;;;;;;10335328;28;20502;-74
2022/05/26 14:01:51;;;;;;;1.30;1.00;;;;;;;;;;10341561;28;20065;-73
2022/05/26 14:06:54;;;;;;;1.52;0.80;;;;;;;;;;10358615;28;20026;-75
2022/05/26 14:12:03;;;;;;;1.05;0.90;;;;;;;;;;10357339;28;20108;-75
2022/05/26 14:17:07;;;;;;;0.70;0.70;;;;;;;;;;10355894;28;20308;-75
2022/05/26 14:22:11;;;;;;;1.75;1.10;;;;;;;;;;10339692;28;20053;-72
2022/05/26 14:27:17;;;;;;;4.07;1.88;;;;;;;;;;10332184;28;20037;-74
2022/05/26 14:32:25;;;;;;;1.42;1.15;;;;;;;;;;10348463;28;20469;-74
2022/05/26 14:37:29;;;;;;;2.03;1.00;;;;;;;;;;10340486;28;20057;-75
2022/05/26 14:42:34;;;;;;;5.07;2.28;;;;;;;;;;10357223;28;20040;-75
2022/05/26 14:47:37;;;;;;;1.20;1.02;;;;;;;;;;10333704;28;20109;-75
2022/05/26 14:52:42;;;;;;;3.75;1.25;;;;;;;;;;10356224;28;20038;-75
2022/05/26 14:57:46;;;;;;;1.50;0.82;;;;;;;;;;10357790;28;20051;-73
2022/05/26 15:02:49;;;;;;;2.38;1.00;;;;;;;;;;10350605;28;20157;-74
2022/05/26 15:07:52;;;;;;;2.03;0.80;;;;;;;;;;10338103;28;20589;-75
2022/05/26 15:12:55;;;;;;;;;;;;;;;;;;10341915;28;20133;-73
2022/05/26 15:17:59;;;;;;;0.70;0.70;;;;;;;;;;10342131;28;20047;-73
2022/05/26 15:23:02;;;;;;;3.85;1.67;;;;;;;;;;10356476;28;20379;-73
2022/05/26 15:28:07;;;;;;;1.38;1.00;;;;;;;;;;10356987;28;20396;-74
2022/05/26 15:33:11;;;;;;;1.63;1.05;;;;;;;;;;10361278;28;20056;-74
2022/05/26 15:38:14;;;;;;;2.00;0.90;;;;;;;;;;10361806;28;20417;-74
2022/05/26 15:43:17;;;;;;;2.58;1.00;;;;;;;;;;10360222;28;20040;-74
2022/05/26 15:48:23;;;;;;;0.90;0.90;;;;;;;;;;10339659;28;20029;-74
2022/05/26 15:53:29;;;;;;;2.47;1.20;;;;;;;;;;10365977;28;20057;-74
2022/05/26 15:58:33;;;;;;;1.23;0.95;;;;;;;;;;10356905;28;20050;-73
2022/05/26 16:03:37;;;;;;;4.13;1.38;;;;;;;;;;10344257;28;20499;-72
2022/05/26 16:08:40;;;;;;;2.15;1.42;;;;;;;;;;10345669;28;20502;-74
2022/05/26 16:13:43;;;;;;;2.05;1.20;;;;;;;;;;10360125;28;20041;-74
2022/05/26 16:18:47;;;;;;;1.65;1.00;;;;;;;;;;10340692;28;20449;-75
2022/05/26 16:23:52;;;;;;;1.58;1.00;;;;;;;;;;10358099;28;20068;-75
2022/05/26 16:28:56;;;;;;;1.90;1.30;;;;;;;;;;10363251;28;20483;-75
2022/05/26 16:34:00;;;;;;;3.13;1.20;;;;;;;;;;10343567;28;20049;-75
2022/05/26 16:39:03;;;;;;;9.02;4.70;;;;;;;;;;10357977;28;20573;-74
2022/05/26 16:44:06;;;;;;;3.13;0.98;;;;;;;;;;10360434;28;20113;-73
2022/05/26 16:49:11;;;;;;;2.45;1.23;;;;;;;;;;10359314;28;20034;-74
2022/05/26 16:54:20;;;;;;;3.72;1.38;;;;;;;;;;10358861;28;21654;-75
2022/05/26 16:59:23;;;;;;;1.98;1.00;;;;;;;;;;10354440;28;20042;-76
2022/05/26 17:04:28;;;;;;;1.55;1.10;;;;;;;;;;10340162;28;20053;-74
2022/05/26 17:09:31;;;;;;;1.73;1.10;;;;;;;;;;10358129;28;20127;-72
2022/05/26 17:25:17;;;;;;;3.15;1.10;;;;;;;;;;10358478;28;20533;-74
2022/05/26 17:30:19;;;;;;;12.00;6.85;;;;;;;;;;10341869;28;20132;-73
2022/05/26 17:35:24;;;;;;;6.75;3.17;;;;;;;;;;10357895;28;20434;-74
2022/05/26 17:40:28;;;;;;;2.50;1.20;;;;;;;;;;10357019;28;20045;-74
2022/05/26 17:45:31;;;;;;;2.90;1.73;;;;;;;;;;10363756;28;20119;-74
2022/05/26 17:50:35;;;;;;;10.05;5.00;;;;;;;;;;10355788;28;20053;-74
2022/05/26 17:55:39;;;;;;;5.13;2.03;;;;;;;;;;10356601;28;20065;-74
2022/05/26 18:01:02;;;;;;;2.08;1.20;;;;;;;;;;10358141;28;20045;-74
2022/05/26 18:06:07;;;;;;;2.85;1.05;;;;;;;;;;10341582;28;20520;-75
2022/05/26 18:11:11;;;;;;;5.50;2.58;;;;;;;;;;10355512;28;20091;-73
2022/05/26 18:16:16;;;;;;;4.78;1.98;;;;;;;;;;10344229;28;20073;-74
2022/05/26 18:21:25;;;;;;;2.20;1.38;;;;;;;;;;10357979;28;20069;-76
2022/05/26 18:26:27;;;;;;;3.90;1.30;;;;;;;;;;10343380;28;20562;-75
2022/05/26 18:31:35;;;;;;;3.30;1.50;;;;;;;;;;10346424;28;20428;-77
2022/05/26 18:36:39;;;;;;;1.20;1.10;;;;;;;;;;10355654;28;20038;-71
2022/05/26 18:41:43;;;;;;;3.40;2.00;;;;;;;;;;10356831;28;20486;-74
2022/05/26 18:46:45;;;;;;;3.72;1.27;;;;;;;;;;10371832;28;20070;-71
2022/05/26 18:51:50;;;;;;;1.80;1.15;;;;;;;;;;10360032;28;20034;-74
2022/05/26 18:56:53;;;;;;;2.75;1.25;;;;;;;;;;10361213;28;20042;-73
2022/05/26 19:01:56;;;;;;;;;;;;;;;;;;10368658;28;20066;-74
2022/05/26 19:07:00;;;;;;;7.53;3.45;;;;;;;;;;10339862;28;19921;-72
2022/05/26 19:12:04;;;;;;;13.27;5.32;;;;;;;;;;10361197;28;20117;-73
2022/05/26 19:17:08;;;;;;;11.63;4.72;;;;;;;;;;10344586;28;20498;-73
2022/05/26 19:22:12;;;;;;;4.45;1.88;;;;;;;;;;10348604;28;20551;-74
2022/05/26 19:27:16;;;;;;;4.25;1.77;;;;;;;;;;10365545;28;20061;-72
2022/05/26 19:32:22;;;;;;;7.10;2.05;;;;;;;;;;10368138;28;20049;-72
2022/05/26 19:37:28;;;;;;;5.55;2.47;;;;;;;;;;10358269;28;20048;-74
2022/05/26 19:42:33;;;;;;;5.40;2.40;;;;;;;;;;10344148;28;20069;-74
2022/05/26 19:47:36;;;;;;;6.65;2.97;;;;;;;;;;10357323;28;20089;-75
2022/05/26 19:52:44;;;;;;;5.70;2.03;;;;;;;;;;10360642;28;20072;-76
2022/05/26 19:57:47;;;;;;;5.70;2.17;;;;;;;;;;10363834;28;20122;-74
2022/05/26 20:02:50;;;;;;;3.05;1.80;;;;;;;;;;10364300;28;20041;-73
2022/05/26 20:07:54;;;;;;;4.38;2.40;;;;;;;;;;10359109;28;20479;-74
2022/05/26 20:12:57;;;;;;;5.43;2.85;;;;;;;;;;10356840;28;20068;-73
2022/05/26 20:18:00;;;;;;;5.93;2.08;;;;;;;;;;10359923;28;20140;-73
2022/05/26 20:23:05;;;;;;;4.07;2.10;;;;;;;;;;10360081;28;20058;-73
2022/05/26 20:33:30;;;;;;;4.75;1.92;;;;;;;;;;10356966;28;20073;-73
2022/05/26 20:38:35;;;;;;;5.57;2.10;;;;;;;;;;10359791;28;20418;-72
2022/05/26 20:43:37;;;;;;;14.15;5.65;;;;;;;;;;10359473;28;20494;-72
2022/05/26 20:48:41;;;;;;;4.77;1.87;;;;;;;;;;10341125;28;20042;-72
2022/05/26 20:53:47;;;;;;;4.97;2.10;;;;;;;;;;10365762;28;20056;-74
2022/05/26 20:58:50;;;;;;;4.10;2.35;;;;;;;;;;10333509;28;20132;-72
2022/05/26 21:03:53;;;;;;;4.97;2.40;;;;;;;;;;10364013;28;20057;-78
2022/05/26 21:08:58;;;;;;;2.85;1.95;;;;;;;;;;10360732;28;20077;-81
2022/05/26 21:14:00;;;;;;;4.05;2.22;;;;;;;;;;10365627;28;20226;-78
2022/05/26 21:19:03;;;;;;;2.75;1.90;;;;;;;;;;10357027;28;20505;-77
2022/05/26 21:24:09;;;;;;;5.47;2.15;;;;;;;;;;10344704;28;20081;-80
2022/05/26 21:29:14;;;;;;;2.95;1.90;;;;;;;;;;10361645;28;20053;-79
2022/05/26 21:34:18;;;;;;;2.78;1.60;;;;;;;;;;10346514;28;20078;-78
2022/05/26 21:39:22;;;;;;;2.75;2.00;;;;;;;;;;10355549;28;20412;-78
2022/05/26 21:44:25;;;;;;;3.97;2.35;;;;;;;;;;10361068;28;20038;-77
2022/05/26 21:49:28;;;;;;;3.90;2.00;;;;;;;;;;10337425;28;20133;-76
2022/05/26 21:54:36;;;;;;;3.85;1.73;;;;;;;;;;10365969;28;20037;-77
2022/05/26 21:59:38;;;;;;;3.47;1.90;;;;;;;;;;10343831;28;20137;-79
2022/05/26 22:15:25;;;;;;;3.97;2.22;;;;;;;;;;10342407;28;20113;-78
2022/05/26 22:20:28;;;;;;;3.17;1.90;;;;;;;;;;10336091;28;20129;-79
2022/05/26 22:25:33;;;;;;;4.23;2.33;;;;;;;;;;10343919;28;20065;-77
2022/05/26 22:30:38;;;;;;;3.58;2.17;;;;;;;;;;10358796;28;20104;-77
2022/05/26 22:35:41;;;;;;;5.68;2.38;;;;;;;;;;10340994;28;20054;-77
2022/05/26 22:40:46;;;;;;;4.95;2.47;;;;;;;;;;10360352;28;20042;-77
2022/05/26 22:45:50;;;;;;;3.67;2.30;;;;;;;;;;10339543;28;20128;-78
2022/05/26 22:50:54;;;;;;;7.03;2.38;;;;;;;;;;10354641;28;20069;-78
2022/05/26 22:55:58;;;;;;;3.65;2.33;;;;;;;;;;10356342;28;20145;-79
2022/05/26 23:01:01;;;;;;;4.60;2.53;;;;;;;;;;10337086;28;20058;-76
2022/05/26 23:06:04;;;;;;;;;;;;;;;;;;10355825;28;20478;-78
2022/05/26 23:11:09;;;;;;;4.32;2.33;;;;;;;;;;10354846;28;19999;-78
2022/05/26 23:16:14;;;;;;;4.78;2.47;;;;;;;;;;10358569;28;20528;-80
2022/05/26 23:21:18;;;;;;;3.53;2.28;;;;;;;;;;10351520;28;20423;-79
2022/05/26 23:26:23;;;;;;;5.20;2.28;;;;;;;;;;10355132;28;20120;-77
2022/05/26 23:31:26;;;;;;;5.97;2.30;;;;;;;;;;10345441;28;20483;-74
2022/05/26 23:36:29;;;;;;;3.60;2.27;;;;;;;;;;10368750;28;20061;-76
2022/05/26 23:46:55;;;;;;;3.05;2.00;;;;;;;;;;10359610;28;20042;-78
2022/05/26 23:51:58;;;;;;;5.82;2.10;;;;;;;;;;10343374;28;20081;-79
